sensor_id;sensor_type;location;lat;lon;timestamp;temperature;humidity
3156;DHT22;1588;50.892;7.082;2023-04-01T00:03:56;10.60;99.90
3156;DHT22;1588;50.892;7.082;2023-04-01T00:08:59;10.70;99.90
3156;DHT22;1588;50.892;7.082;2023-04-01T00:14:05;10.70;99.90
3156;DHT22;1588;50.892;7.082;2023-04-01T00:19:08;10.70;99.90
3156;DHT22;1588;50.892;7.082;2023-04-01T00:24:10;10.70;99.90
3156;DHT22;1588;50.892;7.082;2023-04-01T00:29:14;10.80;99.90
3156;DHT22;1588;50.892;7.082;2023-04-01T00:34:16;10.80;99.90
3156;DHT22;1588;50.892;7.082;2023-04-01T00:39:22;10.80;99.90
3156;DHT22;1588;50.892;7.082;2023-04-01T00:44:30;10.80;99.90
3156;DHT22;1588;50.892;7.082;2023-04-01T00:49:35;10.80;99.90
3156;DHT22;1588;50.892;7.082;2023-04-01T00:54:41;10.80;99.90
3156;DHT22;1588;50.892;7.082;2023-04-01T00:59:50;10.80;99.90
3156;DHT22;1588;50.892;7.082;2023-04-01T01:04:53;10.80;99.90
3156;DHT22;1588;50.892;7.082;2023-04-01T01:10:03;10.80;99.90
3156;DHT22;1588;50.892;7.082;2023-04-01T01:15:21;10.80;99.90
3156;DHT22;1588;50.892;7.082;2023-04-01T01:26:23;10.80;99.90
3156;DHT22;1588;50.892;7.082;2023-04-01T01:31:36;10.80;99.90
3156;DHT22;1588;50.892;7.082;2023-04-01T01:36:42;10.80;99.90
3156;DHT22;1588;50.892;7.082;2023-04-01T01:41:49;10.90;99.90
3156;DHT22;1588;50.892;7.082;2023-04-01T01:46:51;10.80;99.90
3156;DHT22;1588;50.892;7.082;2023-04-01T01:51:55;10.80;99.90
3156;DHT22;1588;50.892;7.082;2023-04-01T01:57:03;10.70;99.90
3156;DHT22;1588;50.892;7.082;2023-04-01T02:02:08;10.70;99.90
3156;DHT22;1588;50.892;7.082;2023-04-01T02:07:18;10.70;99.90
3156;DHT22;1588;50.892;7.082;2023-04-01T02:12:22;10.60;99.90
3156;DHT22;1588;50.892;7.082;2023-04-01T02:17:28;10.50;99.90
3156;DHT22;1588;50.892;7.082;2023-04-01T02:22:35;10.40;99.90
3156;DHT22;1588;50.892;7.082;2023-04-01T02:27:40;10.30;99.90
3156;DHT22;1588;50.892;7.082;2023-04-01T02:32:45;10.10;99.90
3156;DHT22;1588;50.892;7.082;2023-04-01T02:37:50;10.00;99.90
3156;DHT22;1588;50.892;7.082;2023-04-01T02:42:56;9.80;99.90
3156;DHT22;1588;50.892;7.082;2023-04-01T02:47:59;9.70;99.90
3156;DHT22;1588;50.892;7.082;2023-04-01T02:53:03;9.70;99.90
3156;DHT22;1588;50.892;7.082;2023-04-01T02:58:07;9.60;99.90
3156;DHT22;1588;50.892;7.082;2023-04-01T03:03:09;9.60;99.90
3156;DHT22;1588;50.892;7.082;2023-04-01T03:08:13;9.60;99.90
3156;DHT22;1588;50.892;7.082;2023-04-01T03:13:15;9.60;99.90
3156;DHT22;1588;50.892;7.082;2023-04-01T03:18:18;9.50;99.90
3156;DHT22;1588;50.892;7.082;2023-04-01T03:23:21;9.60;99.90
3156;DHT22;1588;50.892;7.082;2023-04-01T03:28:25;9.50;99.90
3156;DHT22;1588;50.892;7.082;2023-04-01T03:33:27;9.50;99.90
3156;DHT22;1588;50.892;7.082;2023-04-01T03:38:33;9.50;99.90
3156;DHT22;1588;50.892;7.082;2023-04-01T03:43:35;9.50;99.90
3156;DHT22;1588;50.892;7.082;2023-04-01T03:48:37;9.50;99.90
3156;DHT22;1588;50.892;7.082;2023-04-01T03:53:41;9.50;99.90
3156;DHT22;1588;50.892;7.082;2023-04-01T03:58:44;9.40;99.90
3156;DHT22;1588;50.892;7.082;2023-04-01T04:03:46;9.50;99.90
3156;DHT22;1588;50.892;7.082;2023-04-01T04:08:54;9.50;99.90
3156;DHT22;1588;50.892;7.082;2023-04-01T04:13:56;9.60;99.90
3156;DHT22;1588;50.892;7.082;2023-04-01T04:18:59;9.50;99.90
3156;DHT22;1588;50.892;7.082;2023-04-01T04:24:03;9.50;99.90
3156;DHT22;1588;50.892;7.082;2023-04-01T04:29:05;9.60;99.90
3156;DHT22;1588;50.892;7.082;2023-04-01T04:34:08;9.70;99.90
3156;DHT22;1588;50.892;7.082;2023-04-01T04:39:12;9.70;99.90
3156;DHT22;1588;50.892;7.082;2023-04-01T04:44:14;9.70;99.90
3156;DHT22;1588;50.892;7.082;2023-04-01T04:49:17;9.60;99.90
3156;DHT22;1588;50.892;7.082;2023-04-01T04:54:21;9.70;99.90
3156;DHT22;1588;50.892;7.082;2023-04-01T04:59:26;9.60;99.90
3156;DHT22;1588;50.892;7.082;2023-04-01T05:04:32;9.60;99.90
3156;DHT22;1588;50.892;7.082;2023-04-01T05:09:37;9.60;99.90
3156;DHT22;1588;50.892;7.082;2023-04-01T05:14:40;9.50;99.90
3156;DHT22;1588;50.892;7.082;2023-04-01T05:19:48;9.50;99.90
3156;DHT22;1588;50.892;7.082;2023-04-01T05:24:54;9.40;99.90
3156;DHT22;1588;50.892;7.082;2023-04-01T05:29:56;9.40;99.90
3156;DHT22;1588;50.892;7.082;2023-04-01T05:34:59;9.30;99.90
3156;DHT22;1588;50.892;7.082;2023-04-01T05:40:04;9.30;99.90
3156;DHT22;1588;50.892;7.082;2023-04-01T05:45:10;9.40;99.90
3156;DHT22;1588;50.892;7.082;2023-04-01T05:50:12;9.40;99.90
3156;DHT22;1588;50.892;7.082;2023-04-01T05:55:16;9.40;99.90
3156;DHT22;1588;50.892;7.082;2023-04-01T06:00:19;9.40;99.90
3156;DHT22;1588;50.892;7.082;2023-04-01T06:05:23;9.40;99.90
3156;DHT22;1588;50.892;7.082;2023-04-01T06:10:38;9.40;99.90
3156;DHT22;1588;50.892;7.082;2023-04-01T06:15:48;9.40;99.90
3156;DHT22;1588;50.892;7.082;2023-04-01T06:21:00;9.40;99.90
3156;DHT22;1588;50.892;7.082;2023-04-01T06:26:24;9.40;99.90
3156;DHT22;1588;50.892;7.082;2023-04-01T06:31:46;9.60;99.90
3156;DHT22;1588;50.892;7.082;2023-04-01T06:37:02;9.60;99.90
3156;DHT22;1588;50.892;7.082;2023-04-01T06:42:34;9.70;99.90
3156;DHT22;1588;50.892;7.082;2023-04-01T06:47:48;9.80;99.90
3156;DHT22;1588;50.892;7.082;2023-04-01T06:53:00;9.90;99.90
3156;DHT22;1588;50.892;7.082;2023-04-01T06:58:13;10.20;99.90
3156;DHT22;1588;50.892;7.082;2023-04-01T07:03:23;10.20;99.90
3156;DHT22;1588;50.892;7.082;2023-04-01T07:08:33;10.20;99.90
3156;DHT22;1588;50.892;7.082;2023-04-01T07:13:42;10.30;99.90
3156;DHT22;1588;50.892;7.082;2023-04-01T07:18:49;10.30;99.90
3156;DHT22;1588;50.892;7.082;2023-04-01T07:23:57;10.20;99.90
3156;DHT22;1588;50.892;7.082;2023-04-01T07:29:05;10.20;99.90
3156;DHT22;1588;50.892;7.082;2023-04-01T07:34:12;10.20;99.90
3156;DHT22;1588;50.892;7.082;2023-04-01T07:39:30;10.20;99.90
3156;DHT22;1588;50.892;7.082;2023-04-01T07:44:46;10.10;99.90
3156;DHT22;1588;50.892;7.082;2023-04-01T07:50:02;10.20;99.90
3156;DHT22;1588;50.892;7.082;2023-04-01T07:55:12;10.10;99.90
3156;DHT22;1588;50.892;7.082;2023-04-01T08:00:24;10.20;99.90
3156;DHT22;1588;50.892;7.082;2023-04-01T08:05:34;10.10;99.90
3156;DHT22;1588;50.892;7.082;2023-04-01T08:10:49;10.10;99.90
3156;DHT22;1588;50.892;7.082;2023-04-01T08:16:00;10.10;99.90
3156;DHT22;1588;50.892;7.082;2023-04-01T08:21:12;10.20;99.90
3156;DHT22;1588;50.892;7.082;2023-04-01T08:26:26;10.30;99.90
3156;DHT22;1588;50.892;7.082;2023-04-01T08:31:37;10.20;99.90
3156;DHT22;1588;50.892;7.082;2023-04-01T08:36:44;10.20;99.90
3156;DHT22;1588;50.892;7.082;2023-04-01T08:42:25;10.10;99.90
3156;DHT22;1588;50.892;7.082;2023-04-01T08:47:50;10.20;99.90
3156;DHT22;1588;50.892;7.082;2023-04-01T08:53:00;10.30;99.90
3156;DHT22;1588;50.892;7.082;2023-04-01T08:58:21;10.30;99.90
3156;DHT22;1588;50.892;7.082;2023-04-01T09:03:45;10.30;99.90
3156;DHT22;1588;50.892;7.082;2023-04-01T09:09:07;10.40;99.90
3156;DHT22;1588;50.892;7.082;2023-04-01T09:14:26;10.30;99.90
3156;DHT22;1588;50.892;7.082;2023-04-01T09:19:48;10.30;99.90
3156;DHT22;1588;50.892;7.082;2023-04-01T09:36:17;10.50;99.90
3156;DHT22;1588;50.892;7.082;2023-04-01T09:41:29;10.50;99.90
3156;DHT22;1588;50.892;7.082;2023-04-01T09:46:47;10.40;99.90
3156;DHT22;1588;50.892;7.082;2023-04-01T09:52:03;10.50;99.90
3156;DHT22;1588;50.892;7.082;2023-04-01T09:57:30;10.50;99.90
3156;DHT22;1588;50.892;7.082;2023-04-01T10:03:02;10.50;99.90
3156;DHT22;1588;50.892;7.082;2023-04-01T10:08:43;10.60;99.90
3156;DHT22;1588;50.892;7.082;2023-04-01T10:19:48;10.70;99.90
3156;DHT22;1588;50.892;7.082;2023-04-01T10:25:15;10.80;99.90
3156;DHT22;1588;50.892;7.082;2023-04-01T10:42:06;10.90;99.90
3156;DHT22;1588;50.892;7.082;2023-04-01T10:53:31;11.20;99.90
3156;DHT22;1588;50.892;7.082;2023-04-01T11:04:46;11.20;99.90
3156;DHT22;1588;50.892;7.082;2023-04-01T11:21:46;11.30;99.90
3156;DHT22;1588;50.892;7.082;2023-04-01T11:27:05;11.30;99.90
3156;DHT22;1588;50.892;7.082;2023-04-01T11:37:41;11.70;99.90
3156;DHT22;1588;50.892;7.082;2023-04-01T11:42:51;11.80;99.90
3156;DHT22;1588;50.892;7.082;2023-04-01T11:48:08;11.60;99.90
3156;DHT22;1588;50.892;7.082;2023-04-01T11:53:25;11.60;99.90
3156;DHT22;1588;50.892;7.082;2023-04-01T11:58:57;11.70;99.90
3156;DHT22;1588;50.892;7.082;2023-04-01T12:04:41;12.10;99.90
3156;DHT22;1588;50.892;7.082;2023-04-01T12:09:55;12.00;99.90
3156;DHT22;1588;50.892;7.082;2023-04-01T12:15:08;11.80;99.90
3156;DHT22;1588;50.892;7.082;2023-04-01T12:20:30;11.90;99.90
3156;DHT22;1588;50.892;7.082;2023-04-01T12:26:00;12.30;99.90
3156;DHT22;1588;50.892;7.082;2023-04-01T12:31:27;12.60;99.90
3156;DHT22;1588;50.892;7.082;2023-04-01T12:36:40;12.00;99.90
3156;DHT22;1588;50.892;7.082;2023-04-01T12:41:51;11.90;99.90
3156;DHT22;1588;50.892;7.082;2023-04-01T12:47:11;11.80;99.90
3156;DHT22;1588;50.892;7.082;2023-04-01T12:52:27;12.00;99.90
3156;DHT22;1588;50.892;7.082;2023-04-01T12:57:45;12.00;99.90
3156;DHT22;1588;50.892;7.082;2023-04-01T13:03:04;11.90;99.90
3156;DHT22;1588;50.892;7.082;2023-04-01T13:08:23;11.80;99.90
3156;DHT22;1588;50.892;7.082;2023-04-01T13:19:23;12.00;99.90
3156;DHT22;1588;50.892;7.082;2023-04-01T13:24:38;11.90;99.90
3156;DHT22;1588;50.892;7.082;2023-04-01T13:29:48;12.00;99.90
3156;DHT22;1588;50.892;7.082;2023-04-01T13:35:03;12.00;99.90
3156;DHT22;1588;50.892;7.082;2023-04-01T13:40:26;11.90;99.90
3156;DHT22;1588;50.892;7.082;2023-04-01T13:45:42;11.80;99.90
3156;DHT22;1588;50.892;7.082;2023-04-01T13:51:05;11.70;99.90
3156;DHT22;1588;50.892;7.082;2023-04-01T13:56:23;11.80;99.90
3156;DHT22;1588;50.892;7.082;2023-04-01T14:01:35;12.10;99.90
3156;DHT22;1588;50.892;7.082;2023-04-01T14:06:49;12.20;99.90
3156;DHT22;1588;50.892;7.082;2023-04-01T14:12:04;12.10;99.90
3156;DHT22;1588;50.892;7.082;2023-04-01T14:22:41;11.80;99.90
3156;DHT22;1588;50.892;7.082;2023-04-01T14:27:56;11.80;99.90
3156;DHT22;1588;50.892;7.082;2023-04-01T14:33:06;11.90;99.90
3156;DHT22;1588;50.892;7.082;2023-04-01T14:38:31;12.10;99.90
3156;DHT22;1588;50.892;7.082;2023-04-01T14:44:22;12.10;99.90
3156;DHT22;1588;50.892;7.082;2023-04-01T14:49:34;11.90;99.90
3156;DHT22;1588;50.892;7.082;2023-04-01T14:54:44;12.10;99.90
3156;DHT22;1588;50.892;7.082;2023-04-01T15:00:00;12.00;99.90
3156;DHT22;1588;50.892;7.082;2023-04-01T15:05:38;11.90;99.90
3156;DHT22;1588;50.892;7.082;2023-04-01T15:23:23;12.00;99.90
3156;DHT22;1588;50.892;7.082;2023-04-01T15:29:23;11.90;99.90
3156;DHT22;1588;50.892;7.082;2023-04-01T15:34:40;11.80;99.90
3156;DHT22;1588;50.892;7.082;2023-04-01T15:39:55;11.70;99.90
3156;DHT22;1588;50.892;7.082;2023-04-01T15:45:32;11.70;99.90
3156;DHT22;1588;50.892;7.082;2023-04-01T16:03:17;11.60;99.90
3156;DHT22;1588;50.892;7.082;2023-04-01T16:08:47;11.60;99.90
3156;DHT22;1588;50.892;7.082;2023-04-01T16:14:05;11.70;99.90
3156;DHT22;1588;50.892;7.082;2023-04-01T16:19:32;11.60;99.90
3156;DHT22;1588;50.892;7.082;2023-04-01T16:24:53;11.50;99.90
3156;DHT22;1588;50.892;7.082;2023-04-01T16:30:10;11.40;99.90
3156;DHT22;1588;50.892;7.082;2023-04-01T16:35:31;11.20;99.90
3156;DHT22;1588;50.892;7.082;2023-04-01T16:40:42;11.10;99.90
3156;DHT22;1588;50.892;7.082;2023-04-01T16:45:53;11.10;99.90
3156;DHT22;1588;50.892;7.082;2023-04-01T16:51:01;11.10;99.90
3156;DHT22;1588;50.892;7.082;2023-04-01T16:56:11;11.10;99.90
3156;DHT22;1588;50.892;7.082;2023-04-01T17:01:20;11.10;99.90
3156;DHT22;1588;50.892;7.082;2023-04-01T17:06:30;11.10;99.90
3156;DHT22;1588;50.892;7.082;2023-04-01T17:11:39;11.10;99.90
3156;DHT22;1588;50.892;7.082;2023-04-01T17:17:00;11.00;99.90
3156;DHT22;1588;50.892;7.082;2023-04-01T17:22:18;10.90;99.90
3156;DHT22;1588;50.892;7.082;2023-04-01T17:27:33;10.90;99.90
3156;DHT22;1588;50.892;7.082;2023-04-01T17:32:48;10.80;99.90
3156;DHT22;1588;50.892;7.082;2023-04-01T17:38:07;10.60;99.90
3156;DHT22;1588;50.892;7.082;2023-04-01T17:43:19;10.50;99.90
3156;DHT22;1588;50.892;7.082;2023-04-01T17:48:31;10.40;99.90
3156;DHT22;1588;50.892;7.082;2023-04-01T17:53:43;10.30;99.90
3156;DHT22;1588;50.892;7.082;2023-04-01T17:58:58;10.30;99.90
3156;DHT22;1588;50.892;7.082;2023-04-01T18:04:23;10.20;99.90
3156;DHT22;1588;50.892;7.082;2023-04-01T18:09:41;10.20;99.90
3156;DHT22;1588;50.892;7.082;2023-04-01T18:15:10;10.10;99.90
3156;DHT22;1588;50.892;7.082;2023-04-01T18:20:31;10.00;99.90
3156;DHT22;1588;50.892;7.082;2023-04-01T18:25:38;9.90;99.90
3156;DHT22;1588;50.892;7.082;2023-04-01T18:30:43;9.90;99.90
3156;DHT22;1588;50.892;7.082;2023-04-01T18:35:50;9.80;99.90
3156;DHT22;1588;50.892;7.082;2023-04-01T18:41:10;9.80;99.90
3156;DHT22;1588;50.892;7.082;2023-04-01T18:46:19;9.80;99.90
3156;DHT22;1588;50.892;7.082;2023-04-01T18:51:26;9.80;99.90
3156;DHT22;1588;50.892;7.082;2023-04-01T18:56:37;9.70;99.90
3156;DHT22;1588;50.892;7.082;2023-04-01T19:01:47;9.70;99.90
3156;DHT22;1588;50.892;7.082;2023-04-01T19:06:52;9.70;99.90
3156;DHT22;1588;50.892;7.082;2023-04-01T19:12:24;9.70;99.90
3156;DHT22;1588;50.892;7.082;2023-04-01T19:17:42;9.70;99.90
3156;DHT22;1588;50.892;7.082;2023-04-01T19:23:06;9.70;99.90
3156;DHT22;1588;50.892;7.082;2023-04-01T19:28:22;9.60;99.90
3156;DHT22;1588;50.892;7.082;2023-04-01T19:33:41;9.60;99.90
3156;DHT22;1588;50.892;7.082;2023-04-01T19:38:53;9.60;99.90
3156;DHT22;1588;50.892;7.082;2023-04-01T19:44:09;9.60;99.90
3156;DHT22;1588;50.892;7.082;2023-04-01T19:49:33;9.60;99.90
3156;DHT22;1588;50.892;7.082;2023-04-01T19:54:42;9.60;99.90
3156;DHT22;1588;50.892;7.082;2023-04-01T19:59:52;9.50;99.90
3156;DHT22;1588;50.892;7.082;2023-04-01T20:04:59;9.50;99.90
3156;DHT22;1588;50.892;7.082;2023-04-01T20:10:09;9.50;99.90
3156;DHT22;1588;50.892;7.082;2023-04-01T20:15:28;9.50;99.90
3156;DHT22;1588;50.892;7.082;2023-04-01T20:20:34;9.40;99.90
3156;DHT22;1588;50.892;7.082;2023-04-01T20:25:41;9.40;99.90
3156;DHT22;1588;50.892;7.082;2023-04-01T20:30:55;9.40;99.90
3156;DHT22;1588;50.892;7.082;2023-04-01T20:36:13;9.40;99.90
3156;DHT22;1588;50.892;7.082;2023-04-01T20:41:24;9.40;99.90
3156;DHT22;1588;50.892;7.082;2023-04-01T20:46:33;9.50;99.90
3156;DHT22;1588;50.892;7.082;2023-04-01T20:51:42;9.50;99.90
3156;DHT22;1588;50.892;7.082;2023-04-01T20:56:53;9.50;99.90
3156;DHT22;1588;50.892;7.082;2023-04-01T21:02:07;9.50;99.90
3156;DHT22;1588;50.892;7.082;2023-04-01T21:07:23;9.50;99.90
3156;DHT22;1588;50.892;7.082;2023-04-01T21:12:38;9.40;99.90
3156;DHT22;1588;50.892;7.082;2023-04-01T21:17:56;9.40;99.90
3156;DHT22;1588;50.892;7.082;2023-04-01T21:23:32;9.40;99.90
3156;DHT22;1588;50.892;7.082;2023-04-01T21:28:51;9.40;99.90
3156;DHT22;1588;50.892;7.082;2023-04-01T21:34:14;9.40;99.90
3156;DHT22;1588;50.892;7.082;2023-04-01T21:39:31;9.40;99.90
3156;DHT22;1588;50.892;7.082;2023-04-01T21:44:59;9.30;99.90
3156;DHT22;1588;50.892;7.082;2023-04-01T21:50:28;9.40;99.90
3156;DHT22;1588;50.892;7.082;2023-04-01T22:01:16;9.30;99.90
3156;DHT22;1588;50.892;7.082;2023-04-01T22:06:28;9.30;99.90
3156;DHT22;1588;50.892;7.082;2023-04-01T22:11:42;9.30;99.90
3156;DHT22;1588;50.892;7.082;2023-04-01T22:16:55;9.30;99.90
3156;DHT22;1588;50.892;7.082;2023-04-01T22:22:18;9.30;99.90
3156;DHT22;1588;50.892;7.082;2023-04-01T22:27:28;9.20;99.90
3156;DHT22;1588;50.892;7.082;2023-04-01T22:32:42;9.30;99.90
3156;DHT22;1588;50.892;7.082;2023-04-01T22:37:52;9.30;99.90
3156;DHT22;1588;50.892;7.082;2023-04-01T22:43:01;9.30;99.90
3156;DHT22;1588;50.892;7.082;2023-04-01T22:48:10;9.30;99.90
3156;DHT22;1588;50.892;7.082;2023-04-01T22:53:28;9.30;99.90
3156;DHT22;1588;50.892;7.082;2023-04-01T22:58:38;9.30;99.90
3156;DHT22;1588;50.892;7.082;2023-04-01T23:03:43;9.40;99.90
3156;DHT22;1588;50.892;7.082;2023-04-01T23:09:04;9.30;99.90
3156;DHT22;1588;50.892;7.082;2023-04-01T23:14:39;9.30;99.90
3156;DHT22;1588;50.892;7.082;2023-04-01T23:19:51;9.30;99.90
3156;DHT22;1588;50.892;7.082;2023-04-01T23:25:06;9.30;99.90
3156;DHT22;1588;50.892;7.082;2023-04-01T23:30:48;9.30;99.90
3156;DHT22;1588;50.892;7.082;2023-04-01T23:35:53;9.20;99.90
3156;DHT22;1588;50.892;7.082;2023-04-01T23:40:57;9.20;99.90
3156;DHT22;1588;50.892;7.082;2023-04-01T23:46:01;9.20;99.90
3156;DHT22;1588;50.892;7.082;2023-04-01T23:51:13;9.20;99.90
3156;DHT22;1588;50.892;7.082;2023-04-01T23:56:18;9.20;99.90
